sensor_id;sensor_type;location;lat;lon;timestamp;P1;durP1;ratioP1;P2;durP2;ratioP2
7843;SDS011;3967;48.702;9.326;2024-01-25T00:00:19;14.33;;;2.60;;
7843;SDS011;3967;48.702;9.326;2024-01-25T00:02:46;10.73;;;2.93;;
7843;SDS011;3967;48.702;9.326;2024-01-25T00:05:13;12.33;;;2.27;;
7843;SDS011;3967;48.702;9.326;2024-01-25T00:07:47;14.83;;;3.03;;
7843;SDS011;3967;48.702;9.326;2024-01-25T00:10:18;15.53;;;2.10;;
7843;SDS011;3967;48.702;9.326;2024-01-25T00:12:45;11.20;;;2.67;;
7843;SDS011;3967;48.702;9.326;2024-01-25T00:15:12;10.20;;;2.47;;
7843;SDS011;3967;48.702;9.326;2024-01-25T00:17:39;10.07;;;2.40;;
7843;SDS011;3967;48.702;9.326;2024-01-25T00:20:08;17.07;;;2.73;;
7843;SDS011;3967;48.702;9.326;2024-01-25T00:22:36;13.20;;;2.50;;
7843;SDS011;3967;48.702;9.326;2024-01-25T00:25:04;10.27;;;2.10;;
7843;SDS011;3967;48.702;9.326;2024-01-25T00:27:32;15.10;;;3.70;;
7843;SDS011;3967;48.702;9.326;2024-01-25T00:29:59;13.50;;;2.10;;
7843;SDS011;3967;48.702;9.326;2024-01-25T00:32:26;15.93;;;2.83;;
7843;SDS011;3967;48.702;9.326;2024-01-25T00:34:53;14.03;;;2.63;;
7843;SDS011;3967;48.702;9.326;2024-01-25T00:37:20;18.27;;;2.87;;
7843;SDS011;3967;48.702;9.326;2024-01-25T00:39:48;13.80;;;2.33;;
7843;SDS011;3967;48.702;9.326;2024-01-25T00:42:16;9.90;;;1.93;;
7843;SDS011;3967;48.702;9.326;2024-01-25T00:44:47;17.97;;;3.43;;
7843;SDS011;3967;48.702;9.326;2024-01-25T00:47:14;11.77;;;2.20;;
7843;SDS011;3967;48.702;9.326;2024-01-25T00:49:41;13.00;;;2.53;;
7843;SDS011;3967;48.702;9.326;2024-01-25T00:52:11;19.73;;;3.03;;
7843;SDS011;3967;48.702;9.326;2024-01-25T00:54:38;12.43;;;2.13;;
7843;SDS011;3967;48.702;9.326;2024-01-25T00:57:06;16.80;;;2.93;;
7843;SDS011;3967;48.702;9.326;2024-01-25T00:59:33;15.53;;;2.67;;
7843;SDS011;3967;48.702;9.326;2024-01-25T01:02:00;14.63;;;2.67;;
7843;SDS011;3967;48.702;9.326;2024-01-25T01:04:34;15.33;;;3.20;;
7843;SDS011;3967;48.702;9.326;2024-01-25T01:07:13;21.30;;;3.47;;
7843;SDS011;3967;48.702;9.326;2024-01-25T01:09:41;17.27;;;2.57;;
7843;SDS011;3967;48.702;9.326;2024-01-25T01:12:07;18.27;;;3.10;;
7843;SDS011;3967;48.702;9.326;2024-01-25T01:14:34;16.47;;;2.63;;
7843;SDS011;3967;48.702;9.326;2024-01-25T01:17:01;11.60;;;2.27;;
7843;SDS011;3967;48.702;9.326;2024-01-25T01:19:28;17.60;;;3.23;;
7843;SDS011;3967;48.702;9.326;2024-01-25T01:21:54;19.07;;;2.60;;
7843;SDS011;3967;48.702;9.326;2024-01-25T01:24:21;17.47;;;2.60;;
7843;SDS011;3967;48.702;9.326;2024-01-25T01:26:48;18.40;;;2.53;;
7843;SDS011;3967;48.702;9.326;2024-01-25T01:29:17;18.33;;;3.10;;
7843;SDS011;3967;48.702;9.326;2024-01-25T01:31:44;18.27;;;3.10;;
7843;SDS011;3967;48.702;9.326;2024-01-25T01:34:11;17.63;;;3.00;;
7843;SDS011;3967;48.702;9.326;2024-01-25T01:36:44;12.00;;;3.27;;
7843;SDS011;3967;48.702;9.326;2024-01-25T01:39:11;12.67;;;2.37;;
7843;SDS011;3967;48.702;9.326;2024-01-25T01:41:37;11.00;;;2.27;;
7843;SDS011;3967;48.702;9.326;2024-01-25T01:44:04;20.67;;;2.87;;
7843;SDS011;3967;48.702;9.326;2024-01-25T01:46:34;10.80;;;2.50;;
7843;SDS011;3967;48.702;9.326;2024-01-25T01:49:06;11.97;;;2.50;;
7843;SDS011;3967;48.702;9.326;2024-01-25T01:51:37;19.63;;;2.70;;
7843;SDS011;3967;48.702;9.326;2024-01-25T01:54:06;17.27;;;2.70;;
7843;SDS011;3967;48.702;9.326;2024-01-25T01:56:33;16.30;;;2.83;;
7843;SDS011;3967;48.702;9.326;2024-01-25T01:59:01;18.87;;;3.03;;
7843;SDS011;3967;48.702;9.326;2024-01-25T02:01:28;15.80;;;2.83;;
7843;SDS011;3967;48.702;9.326;2024-01-25T02:03:55;18.33;;;2.83;;
7843;SDS011;3967;48.702;9.326;2024-01-25T02:06:25;15.23;;;2.37;;
7843;SDS011;3967;48.702;9.326;2024-01-25T02:08:52;19.93;;;2.73;;
7843;SDS011;3967;48.702;9.326;2024-01-25T02:11:19;20.23;;;3.53;;
7843;SDS011;3967;48.702;9.326;2024-01-25T02:13:46;16.07;;;2.77;;
7843;SDS011;3967;48.702;9.326;2024-01-25T02:16:16;10.03;;;2.40;;
7843;SDS011;3967;48.702;9.326;2024-01-25T02:18:46;14.10;;;2.37;;
7843;SDS011;3967;48.702;9.326;2024-01-25T02:21:14;12.93;;;2.30;;
7843;SDS011;3967;48.702;9.326;2024-01-25T02:23:41;13.87;;;2.47;;
7843;SDS011;3967;48.702;9.326;2024-01-25T02:26:08;12.13;;;2.57;;
7843;SDS011;3967;48.702;9.326;2024-01-25T02:28:35;20.33;;;3.07;;
7843;SDS011;3967;48.702;9.326;2024-01-25T02:31:02;14.13;;;2.57;;
7843;SDS011;3967;48.702;9.326;2024-01-25T02:33:29;15.27;;;3.10;;
7843;SDS011;3967;48.702;9.326;2024-01-25T02:35:57;15.93;;;3.10;;
7843;SDS011;3967;48.702;9.326;2024-01-25T02:38:23;17.60;;;2.60;;
7843;SDS011;3967;48.702;9.326;2024-01-25T02:40:50;13.60;;;2.73;;
7843;SDS011;3967;48.702;9.326;2024-01-25T02:43:20;9.03;;;2.17;;
7843;SDS011;3967;48.702;9.326;2024-01-25T02:45:47;14.07;;;3.03;;
7843;SDS011;3967;48.702;9.326;2024-01-25T02:48:15;15.00;;;2.73;;
7843;SDS011;3967;48.702;9.326;2024-01-25T02:50:42;10.90;;;2.37;;
7843;SDS011;3967;48.702;9.326;2024-01-25T02:53:09;12.73;;;2.53;;
7843;SDS011;3967;48.702;9.326;2024-01-25T02:55:36;17.17;;;2.83;;
7843;SDS011;3967;48.702;9.326;2024-01-25T02:58:03;12.13;;;2.50;;
7843;SDS011;3967;48.702;9.326;2024-01-25T03:00:30;16.33;;;2.87;;
7843;SDS011;3967;48.702;9.326;2024-01-25T03:02:57;17.03;;;3.33;;
7843;SDS011;3967;48.702;9.326;2024-01-25T03:05:24;11.30;;;2.40;;
7843;SDS011;3967;48.702;9.326;2024-01-25T03:07:50;14.77;;;2.70;;
7843;SDS011;3967;48.702;9.326;2024-01-25T03:10:18;10.70;;;2.17;;
7843;SDS011;3967;48.702;9.326;2024-01-25T03:12:44;15.30;;;2.47;;
7843;SDS011;3967;48.702;9.326;2024-01-25T03:15:11;17.90;;;2.87;;
7843;SDS011;3967;48.702;9.326;2024-01-25T03:17:38;15.10;;;2.50;;
7843;SDS011;3967;48.702;9.326;2024-01-25T03:20:05;16.13;;;3.20;;
7843;SDS011;3967;48.702;9.326;2024-01-25T03:22:33;16.33;;;3.07;;
7843;SDS011;3967;48.702;9.326;2024-01-25T03:24:59;14.20;;;3.10;;
7843;SDS011;3967;48.702;9.326;2024-01-25T03:27:26;12.47;;;3.00;;
7843;SDS011;3967;48.702;9.326;2024-01-25T03:29:53;18.53;;;3.00;;
7843;SDS011;3967;48.702;9.326;2024-01-25T03:32:20;19.47;;;3.97;;
7843;SDS011;3967;48.702;9.326;2024-01-25T03:34:48;15.30;;;2.57;;
7843;SDS011;3967;48.702;9.326;2024-01-25T03:37:16;16.23;;;3.00;;
7843;SDS011;3967;48.702;9.326;2024-01-25T03:39:43;17.13;;;3.20;;
7843;SDS011;3967;48.702;9.326;2024-01-25T03:42:10;15.23;;;3.10;;
7843;SDS011;3967;48.702;9.326;2024-01-25T03:44:36;16.10;;;2.50;;
7843;SDS011;3967;48.702;9.326;2024-01-25T03:47:03;19.30;;;3.10;;
7843;SDS011;3967;48.702;9.326;2024-01-25T03:49:30;16.03;;;2.93;;
7843;SDS011;3967;48.702;9.326;2024-01-25T03:51:57;13.13;;;2.20;;
7843;SDS011;3967;48.702;9.326;2024-01-25T03:54:24;10.23;;;2.17;;
7843;SDS011;3967;48.702;9.326;2024-01-25T03:56:51;14.83;;;2.37;;
7843;SDS011;3967;48.702;9.326;2024-01-25T03:59:18;18.10;;;2.80;;
7843;SDS011;3967;48.702;9.326;2024-01-25T04:01:45;16.70;;;2.60;;
7843;SDS011;3967;48.702;9.326;2024-01-25T04:04:13;12.57;;;2.30;;
7843;SDS011;3967;48.702;9.326;2024-01-25T04:06:44;17.10;;;2.40;;
7843;SDS011;3967;48.702;9.326;2024-01-25T04:09:14;15.77;;;2.83;;
7843;SDS011;3967;48.702;9.326;2024-01-25T04:11:41;12.83;;;2.23;;
7843;SDS011;3967;48.702;9.326;2024-01-25T04:14:08;16.73;;;2.80;;
7843;SDS011;3967;48.702;9.326;2024-01-25T04:16:35;19.33;;;3.40;;
7843;SDS011;3967;48.702;9.326;2024-01-25T04:19:01;16.70;;;2.57;;
7843;SDS011;3967;48.702;9.326;2024-01-25T04:21:28;14.30;;;2.87;;
7843;SDS011;3967;48.702;9.326;2024-01-25T04:23:55;16.23;;;3.30;;
7843;SDS011;3967;48.702;9.326;2024-01-25T04:26:22;9.43;;;2.27;;
7843;SDS011;3967;48.702;9.326;2024-01-25T04:28:49;18.83;;;2.90;;
7843;SDS011;3967;48.702;9.326;2024-01-25T04:31:16;21.00;;;3.30;;
7843;SDS011;3967;48.702;9.326;2024-01-25T04:33:44;15.60;;;2.70;;
7843;SDS011;3967;48.702;9.326;2024-01-25T04:36:14;19.80;;;3.57;;
7843;SDS011;3967;48.702;9.326;2024-01-25T04:38:41;15.17;;;3.20;;
7843;SDS011;3967;48.702;9.326;2024-01-25T04:41:08;19.40;;;2.47;;
7843;SDS011;3967;48.702;9.326;2024-01-25T04:43:35;13.17;;;3.27;;
7843;SDS011;3967;48.702;9.326;2024-01-25T04:46:03;12.63;;;2.20;;
7843;SDS011;3967;48.702;9.326;2024-01-25T04:48:31;16.50;;;3.37;;
7843;SDS011;3967;48.702;9.326;2024-01-25T04:50:59;16.60;;;3.53;;
7843;SDS011;3967;48.702;9.326;2024-01-25T04:53:26;20.67;;;2.80;;
7843;SDS011;3967;48.702;9.326;2024-01-25T04:55:55;14.83;;;2.37;;
7843;SDS011;3967;48.702;9.326;2024-01-25T04:58:23;16.10;;;3.37;;
7843;SDS011;3967;48.702;9.326;2024-01-25T05:00:50;16.13;;;2.73;;
7843;SDS011;3967;48.702;9.326;2024-01-25T05:03:19;18.40;;;3.30;;
7843;SDS011;3967;48.702;9.326;2024-01-25T05:05:46;15.93;;;3.33;;
7843;SDS011;3967;48.702;9.326;2024-01-25T05:08:13;13.77;;;2.50;;
7843;SDS011;3967;48.702;9.326;2024-01-25T05:10:40;17.47;;;2.40;;
7843;SDS011;3967;48.702;9.326;2024-01-25T05:13:08;11.43;;;2.87;;
7843;SDS011;3967;48.702;9.326;2024-01-25T05:15:36;10.93;;;2.30;;
7843;SDS011;3967;48.702;9.326;2024-01-25T05:18:03;19.83;;;3.40;;
7843;SDS011;3967;48.702;9.326;2024-01-25T05:20:31;15.50;;;3.00;;
7843;SDS011;3967;48.702;9.326;2024-01-25T05:22:59;14.93;;;2.30;;
7843;SDS011;3967;48.702;9.326;2024-01-25T05:25:27;12.80;;;2.00;;
7843;SDS011;3967;48.702;9.326;2024-01-25T05:27:55;16.17;;;2.60;;
7843;SDS011;3967;48.702;9.326;2024-01-25T05:30:22;20.73;;;3.20;;
7843;SDS011;3967;48.702;9.326;2024-01-25T05:32:50;12.33;;;2.40;;
7843;SDS011;3967;48.702;9.326;2024-01-25T05:35:17;16.83;;;2.73;;
7843;SDS011;3967;48.702;9.326;2024-01-25T05:37:44;16.03;;;2.77;;
7843;SDS011;3967;48.702;9.326;2024-01-25T05:40:11;12.13;;;2.10;;
7843;SDS011;3967;48.702;9.326;2024-01-25T05:42:39;11.30;;;2.40;;
7843;SDS011;3967;48.702;9.326;2024-01-25T05:45:06;17.53;;;3.03;;
7843;SDS011;3967;48.702;9.326;2024-01-25T05:47:35;20.77;;;3.27;;
7843;SDS011;3967;48.702;9.326;2024-01-25T05:50:02;14.27;;;2.43;;
7843;SDS011;3967;48.702;9.326;2024-01-25T05:52:31;15.83;;;2.80;;
7843;SDS011;3967;48.702;9.326;2024-01-25T05:54:58;16.23;;;2.77;;
7843;SDS011;3967;48.702;9.326;2024-01-25T05:57:30;11.80;;;2.17;;
7843;SDS011;3967;48.702;9.326;2024-01-25T05:59:57;18.97;;;3.23;;
7843;SDS011;3967;48.702;9.326;2024-01-25T06:02:24;20.47;;;2.87;;
7843;SDS011;3967;48.702;9.326;2024-01-25T06:04:51;14.87;;;2.73;;
7843;SDS011;3967;48.702;9.326;2024-01-25T06:07:18;11.43;;;2.17;;
7843;SDS011;3967;48.702;9.326;2024-01-25T06:09:46;13.90;;;2.67;;
7843;SDS011;3967;48.702;9.326;2024-01-25T06:12:13;16.63;;;2.77;;
7843;SDS011;3967;48.702;9.326;2024-01-25T06:14:40;11.90;;;2.57;;
7843;SDS011;3967;48.702;9.326;2024-01-25T06:17:07;14.47;;;2.10;;
7843;SDS011;3967;48.702;9.326;2024-01-25T06:19:34;11.10;;;2.83;;
7843;SDS011;3967;48.702;9.326;2024-01-25T06:22:01;17.53;;;3.20;;
7843;SDS011;3967;48.702;9.326;2024-01-25T06:24:29;15.27;;;2.90;;
7843;SDS011;3967;48.702;9.326;2024-01-25T06:26:56;18.53;;;3.03;;
7843;SDS011;3967;48.702;9.326;2024-01-25T06:29:23;14.53;;;2.77;;
7843;SDS011;3967;48.702;9.326;2024-01-25T06:31:49;14.83;;;3.10;;
7843;SDS011;3967;48.702;9.326;2024-01-25T06:34:17;14.67;;;2.73;;
7843;SDS011;3967;48.702;9.326;2024-01-25T06:36:44;14.20;;;3.03;;
7843;SDS011;3967;48.702;9.326;2024-01-25T06:39:11;16.60;;;2.70;;
7843;SDS011;3967;48.702;9.326;2024-01-25T06:41:38;14.67;;;3.07;;
7843;SDS011;3967;48.702;9.326;2024-01-25T06:44:04;16.20;;;3.30;;
7843;SDS011;3967;48.702;9.326;2024-01-25T06:46:31;15.20;;;2.67;;
7843;SDS011;3967;48.702;9.326;2024-01-25T06:48:58;21.33;;;3.77;;
7843;SDS011;3967;48.702;9.326;2024-01-25T06:51:25;18.57;;;3.13;;
7843;SDS011;3967;48.702;9.326;2024-01-25T06:53:52;14.63;;;2.83;;
7843;SDS011;3967;48.702;9.326;2024-01-25T06:56:19;19.30;;;3.27;;
7843;SDS011;3967;48.702;9.326;2024-01-25T06:58:45;14.33;;;3.13;;
7843;SDS011;3967;48.702;9.326;2024-01-25T07:01:13;11.83;;;2.80;;
7843;SDS011;3967;48.702;9.326;2024-01-25T07:03:46;12.07;;;2.43;;
7843;SDS011;3967;48.702;9.326;2024-01-25T07:06:19;13.67;;;2.60;;
7843;SDS011;3967;48.702;9.326;2024-01-25T07:08:46;12.80;;;3.20;;
7843;SDS011;3967;48.702;9.326;2024-01-25T07:11:12;15.50;;;3.80;;
7843;SDS011;3967;48.702;9.326;2024-01-25T07:13:40;22.00;;;4.20;;
7843;SDS011;3967;48.702;9.326;2024-01-25T07:16:07;22.50;;;4.00;;
7843;SDS011;3967;48.702;9.326;2024-01-25T07:18:35;21.53;;;4.33;;
7843;SDS011;3967;48.702;9.326;2024-01-25T07:21:02;24.70;;;4.00;;
7843;SDS011;3967;48.702;9.326;2024-01-25T07:23:33;22.77;;;3.60;;
7843;SDS011;3967;48.702;9.326;2024-01-25T07:26:00;22.03;;;4.20;;
7843;SDS011;3967;48.702;9.326;2024-01-25T07:28:26;21.40;;;3.87;;
7843;SDS011;3967;48.702;9.326;2024-01-25T07:30:53;18.77;;;3.97;;
7843;SDS011;3967;48.702;9.326;2024-01-25T07:33:20;13.23;;;3.67;;
7843;SDS011;3967;48.702;9.326;2024-01-25T07:35:47;23.97;;;3.50;;
7843;SDS011;3967;48.702;9.326;2024-01-25T07:38:14;18.70;;;3.30;;
7843;SDS011;3967;48.702;9.326;2024-01-25T07:40:42;22.07;;;3.80;;
7843;SDS011;3967;48.702;9.326;2024-01-25T07:43:09;17.53;;;4.30;;
7843;SDS011;3967;48.702;9.326;2024-01-25T07:45:36;13.20;;;4.10;;
7843;SDS011;3967;48.702;9.326;2024-01-25T07:48:03;15.67;;;3.10;;
7843;SDS011;3967;48.702;9.326;2024-01-25T07:50:40;20.60;;;3.83;;
7843;SDS011;3967;48.702;9.326;2024-01-25T07:53:07;16.90;;;3.57;;
7843;SDS011;3967;48.702;9.326;2024-01-25T07:55:34;20.33;;;3.63;;
7843;SDS011;3967;48.702;9.326;2024-01-25T07:58:01;14.10;;;3.10;;
7843;SDS011;3967;48.702;9.326;2024-01-25T08:00:28;17.13;;;4.23;;
7843;SDS011;3967;48.702;9.326;2024-01-25T08:02:54;22.03;;;3.53;;
7843;SDS011;3967;48.702;9.326;2024-01-25T08:05:21;15.47;;;3.47;;
7843;SDS011;3967;48.702;9.326;2024-01-25T08:07:56;12.40;;;2.60;;
7843;SDS011;3967;48.702;9.326;2024-01-25T08:10:23;13.90;;;2.47;;
7843;SDS011;3967;48.702;9.326;2024-01-25T08:12:50;13.97;;;2.67;;
7843;SDS011;3967;48.702;9.326;2024-01-25T08:15:27;18.03;;;4.43;;
7843;SDS011;3967;48.702;9.326;2024-01-25T08:17:59;8.43;;;2.57;;
7843;SDS011;3967;48.702;9.326;2024-01-25T08:20:26;11.87;;;2.60;;
7843;SDS011;3967;48.702;9.326;2024-01-25T08:22:53;15.10;;;2.63;;
7843;SDS011;3967;48.702;9.326;2024-01-25T08:25:20;13.70;;;2.80;;
7843;SDS011;3967;48.702;9.326;2024-01-25T08:27:47;11.63;;;2.77;;
7843;SDS011;3967;48.702;9.326;2024-01-25T08:30:14;14.67;;;2.40;;
7843;SDS011;3967;48.702;9.326;2024-01-25T08:32:41;13.33;;;2.40;;
7843;SDS011;3967;48.702;9.326;2024-01-25T08:35:08;9.30;;;2.57;;
7843;SDS011;3967;48.702;9.326;2024-01-25T08:37:35;19.50;;;3.43;;
7843;SDS011;3967;48.702;9.326;2024-01-25T08:40:07;10.10;;;2.67;;
7843;SDS011;3967;48.702;9.326;2024-01-25T08:42:37;11.50;;;2.27;;
7843;SDS011;3967;48.702;9.326;2024-01-25T08:45:04;13.10;;;2.43;;
7843;SDS011;3967;48.702;9.326;2024-01-25T08:47:33;11.03;;;2.23;;
7843;SDS011;3967;48.702;9.326;2024-01-25T08:50:01;16.20;;;2.43;;
7843;SDS011;3967;48.702;9.326;2024-01-25T08:52:28;12.27;;;2.63;;
7843;SDS011;3967;48.702;9.326;2024-01-25T08:54:55;10.70;;;2.50;;
7843;SDS011;3967;48.702;9.326;2024-01-25T08:57:22;12.73;;;2.97;;
7843;SDS011;3967;48.702;9.326;2024-01-25T08:59:48;8.57;;;2.20;;
7843;SDS011;3967;48.702;9.326;2024-01-25T09:02:15;10.50;;;2.47;;
7843;SDS011;3967;48.702;9.326;2024-01-25T09:04:42;15.47;;;3.07;;
7843;SDS011;3967;48.702;9.326;2024-01-25T09:07:10;9.77;;;2.40;;
7843;SDS011;3967;48.702;9.326;2024-01-25T09:09:37;17.30;;;3.33;;
7843;SDS011;3967;48.702;9.326;2024-01-25T09:12:06;13.37;;;3.10;;
7843;SDS011;3967;48.702;9.326;2024-01-25T09:14:34;13.23;;;2.57;;
7843;SDS011;3967;48.702;9.326;2024-01-25T09:17:02;12.77;;;2.63;;
7843;SDS011;3967;48.702;9.326;2024-01-25T09:19:29;17.10;;;2.43;;
7843;SDS011;3967;48.702;9.326;2024-01-25T09:21:56;12.17;;;2.80;;
7843;SDS011;3967;48.702;9.326;2024-01-25T09:24:26;17.00;;;2.60;;
7843;SDS011;3967;48.702;9.326;2024-01-25T09:26:53;10.67;;;3.07;;
7843;SDS011;3967;48.702;9.326;2024-01-25T09:29:19;17.97;;;3.07;;
7843;SDS011;3967;48.702;9.326;2024-01-25T09:31:46;15.23;;;3.20;;
7843;SDS011;3967;48.702;9.326;2024-01-25T09:34:13;17.50;;;3.43;;
7843;SDS011;3967;48.702;9.326;2024-01-25T09:36:40;10.30;;;2.43;;
7843;SDS011;3967;48.702;9.326;2024-01-25T09:39:07;14.53;;;2.60;;
7843;SDS011;3967;48.702;9.326;2024-01-25T09:41:34;7.87;;;2.77;;
7843;SDS011;3967;48.702;9.326;2024-01-25T09:44:01;11.13;;;2.40;;
7843;SDS011;3967;48.702;9.326;2024-01-25T09:46:29;11.77;;;2.20;;
7843;SDS011;3967;48.702;9.326;2024-01-25T09:48:58;14.30;;;2.20;;
7843;SDS011;3967;48.702;9.326;2024-01-25T09:51:25;7.03;;;1.80;;
7843;SDS011;3967;48.702;9.326;2024-01-25T09:53:53;10.37;;;2.30;;
7843;SDS011;3967;48.702;9.326;2024-01-25T09:56:21;14.30;;;2.60;;
7843;SDS011;3967;48.702;9.326;2024-01-25T09:58:49;13.00;;;2.23;;
7843;SDS011;3967;48.702;9.326;2024-01-25T10:01:17;12.87;;;2.43;;
7843;SDS011;3967;48.702;9.326;2024-01-25T10:03:44;13.27;;;2.50;;
7843;SDS011;3967;48.702;9.326;2024-01-25T10:06:15;14.30;;;3.10;;
7843;SDS011;3967;48.702;9.326;2024-01-25T10:08:43;11.43;;;2.40;;
7843;SDS011;3967;48.702;9.326;2024-01-25T10:11:11;15.50;;;2.90;;
7843;SDS011;3967;48.702;9.326;2024-01-25T10:13:41;13.13;;;2.93;;
7843;SDS011;3967;48.702;9.326;2024-01-25T10:16:15;15.77;;;2.27;;
7843;SDS011;3967;48.702;9.326;2024-01-25T10:18:44;15.03;;;3.13;;
7843;SDS011;3967;48.702;9.326;2024-01-25T10:21:16;13.37;;;2.70;;
7843;SDS011;3967;48.702;9.326;2024-01-25T10:23:46;10.57;;;2.37;;
7843;SDS011;3967;48.702;9.326;2024-01-25T10:26:15;9.23;;;1.90;;
7843;SDS011;3967;48.702;9.326;2024-01-25T10:28:49;16.70;;;3.20;;
7843;SDS011;3967;48.702;9.326;2024-01-25T10:31:17;17.60;;;2.77;;
7843;SDS011;3967;48.702;9.326;2024-01-25T10:33:44;9.43;;;2.33;;
7843;SDS011;3967;48.702;9.326;2024-01-25T10:36:13;13.77;;;2.77;;
7843;SDS011;3967;48.702;9.326;2024-01-25T10:38:40;10.63;;;2.83;;
7843;SDS011;3967;48.702;9.326;2024-01-25T10:41:10;9.13;;;2.50;;
7843;SDS011;3967;48.702;9.326;2024-01-25T10:43:39;8.60;;;2.10;;
7843;SDS011;3967;48.702;9.326;2024-01-25T10:46:07;12.40;;;2.53;;
7843;SDS011;3967;48.702;9.326;2024-01-25T10:48:35;17.00;;;2.97;;
7843;SDS011;3967;48.702;9.326;2024-01-25T10:51:03;10.33;;;2.43;;
7843;SDS011;3967;48.702;9.326;2024-01-25T10:53:31;12.33;;;2.67;;
7843;SDS011;3967;48.702;9.326;2024-01-25T10:55:59;14.17;;;2.80;;
7843;SDS011;3967;48.702;9.326;2024-01-25T10:58:31;8.73;;;2.30;;
7843;SDS011;3967;48.702;9.326;2024-01-25T11:01:07;9.43;;;1.83;;
7843;SDS011;3967;48.702;9.326;2024-01-25T11:03:41;7.60;;;2.27;;
7843;SDS011;3967;48.702;9.326;2024-01-25T11:06:10;13.80;;;2.53;;
7843;SDS011;3967;48.702;9.326;2024-01-25T11:08:38;14.07;;;3.13;;
7843;SDS011;3967;48.702;9.326;2024-01-25T11:11:06;13.90;;;2.70;;
7843;SDS011;3967;48.702;9.326;2024-01-25T11:13:35;13.03;;;2.47;;
7843;SDS011;3967;48.702;9.326;2024-01-25T11:16:38;14.63;;;2.73;;
7843;SDS011;3967;48.702;9.326;2024-01-25T11:19:01;10.87;;;3.23;;
7843;SDS011;3967;48.702;9.326;2024-01-25T11:21:50;14.63;;;2.50;;
7843;SDS011;3967;48.702;9.326;2024-01-25T11:24:22;7.67;;;2.10;;
7843;SDS011;3967;48.702;9.326;2024-01-25T11:26:53;12.37;;;2.60;;
7843;SDS011;3967;48.702;9.326;2024-01-25T11:29:21;13.60;;;2.07;;
7843;SDS011;3967;48.702;9.326;2024-01-25T11:31:50;15.53;;;3.10;;
7843;SDS011;3967;48.702;9.326;2024-01-25T11:34:18;11.30;;;2.60;;
7843;SDS011;3967;48.702;9.326;2024-01-25T11:36:45;9.77;;;2.27;;
7843;SDS011;3967;48.702;9.326;2024-01-25T11:39:13;11.13;;;2.80;;
7843;SDS011;3967;48.702;9.326;2024-01-25T11:41:41;12.87;;;2.30;;
7843;SDS011;3967;48.702;9.326;2024-01-25T11:44:09;7.87;;;2.03;;
7843;SDS011;3967;48.702;9.326;2024-01-25T11:46:37;13.37;;;2.10;;
7843;SDS011;3967;48.702;9.326;2024-01-25T11:49:04;9.13;;;2.20;;
7843;SDS011;3967;48.702;9.326;2024-01-25T11:51:31;11.90;;;2.03;;
7843;SDS011;3967;48.702;9.326;2024-01-25T11:53:58;9.20;;;1.93;;
7843;SDS011;3967;48.702;9.326;2024-01-25T11:56:29;9.07;;;2.33;;
7843;SDS011;3967;48.702;9.326;2024-01-25T11:58:57;9.03;;;2.10;;
7843;SDS011;3967;48.702;9.326;2024-01-25T12:01:25;9.33;;;2.00;;
7843;SDS011;3967;48.702;9.326;2024-01-25T12:03:53;8.00;;;1.70;;
7843;SDS011;3967;48.702;9.326;2024-01-25T12:06:20;9.10;;;2.00;;
7843;SDS011;3967;48.702;9.326;2024-01-25T12:08:48;9.57;;;2.00;;
7843;SDS011;3967;48.702;9.326;2024-01-25T12:11:17;9.90;;;1.80;;
7843;SDS011;3967;48.702;9.326;2024-01-25T12:13:45;9.10;;;1.83;;
7843;SDS011;3967;48.702;9.326;2024-01-25T12:16:12;10.97;;;2.33;;
7843;SDS011;3967;48.702;9.326;2024-01-25T12:18:40;12.20;;;2.27;;
7843;SDS011;3967;48.702;9.326;2024-01-25T12:21:09;9.43;;;2.20;;
7843;SDS011;3967;48.702;9.326;2024-01-25T12:23:39;7.90;;;1.97;;
7843;SDS011;3967;48.702;9.326;2024-01-25T12:26:07;9.83;;;2.00;;
7843;SDS011;3967;48.702;9.326;2024-01-25T12:28:37;11.07;;;2.30;;
7843;SDS011;3967;48.702;9.326;2024-01-25T12:31:04;10.83;;;2.20;;
7843;SDS011;3967;48.702;9.326;2024-01-25T12:33:33;9.70;;;1.83;;
7843;SDS011;3967;48.702;9.326;2024-01-25T12:36:03;7.80;;;2.13;;
7843;SDS011;3967;48.702;9.326;2024-01-25T12:38:31;6.93;;;1.80;;
7843;SDS011;3967;48.702;9.326;2024-01-25T12:41:01;7.87;;;2.40;;
7843;SDS011;3967;48.702;9.326;2024-01-25T12:43:29;9.13;;;1.80;;
7843;SDS011;3967;48.702;9.326;2024-01-25T12:45:56;14.70;;;2.87;;
7843;SDS011;3967;48.702;9.326;2024-01-25T12:48:38;13.33;;;3.87;;
7843;SDS011;3967;48.702;9.326;2024-01-25T12:51:05;11.10;;;2.43;;
7843;SDS011;3967;48.702;9.326;2024-01-25T12:53:32;16.73;;;2.90;;
7843;SDS011;3967;48.702;9.326;2024-01-25T12:55:59;14.77;;;2.67;;
7843;SDS011;3967;48.702;9.326;2024-01-25T12:58:26;17.10;;;2.53;;
7843;SDS011;3967;48.702;9.326;2024-01-25T13:00:53;12.70;;;2.90;;
7843;SDS011;3967;48.702;9.326;2024-01-25T13:03:20;13.10;;;2.40;;
7843;SDS011;3967;48.702;9.326;2024-01-25T13:05:47;8.73;;;1.90;;
7843;SDS011;3967;48.702;9.326;2024-01-25T13:08:14;11.57;;;1.73;;
7843;SDS011;3967;48.702;9.326;2024-01-25T13:10:41;8.97;;;1.70;;
7843;SDS011;3967;48.702;9.326;2024-01-25T13:13:08;9.33;;;2.13;;
7843;SDS011;3967;48.702;9.326;2024-01-25T13:15:34;16.33;;;3.13;;
7843;SDS011;3967;48.702;9.326;2024-01-25T13:18:02;10.10;;;1.90;;
7843;SDS011;3967;48.702;9.326;2024-01-25T13:20:28;9.53;;;2.67;;
7843;SDS011;3967;48.702;9.326;2024-01-25T13:22:55;9.00;;;1.80;;
7843;SDS011;3967;48.702;9.326;2024-01-25T13:25:22;13.97;;;2.33;;
7843;SDS011;3967;48.702;9.326;2024-01-25T13:27:49;9.67;;;2.10;;
7843;SDS011;3967;48.702;9.326;2024-01-25T13:30:16;12.37;;;2.17;;
7843;SDS011;3967;48.702;9.326;2024-01-25T13:32:43;8.33;;;1.90;;
7843;SDS011;3967;48.702;9.326;2024-01-25T13:35:10;8.10;;;1.90;;
7843;SDS011;3967;48.702;9.326;2024-01-25T13:37:37;14.50;;;2.53;;
7843;SDS011;3967;48.702;9.326;2024-01-25T13:40:05;11.17;;;2.27;;
7843;SDS011;3967;48.702;9.326;2024-01-25T13:42:32;6.87;;;2.10;;
7843;SDS011;3967;48.702;9.326;2024-01-25T13:44:59;9.90;;;1.97;;
7843;SDS011;3967;48.702;9.326;2024-01-25T13:47:26;7.97;;;1.90;;
7843;SDS011;3967;48.702;9.326;2024-01-25T13:49:52;9.47;;;1.80;;
7843;SDS011;3967;48.702;9.326;2024-01-25T13:52:19;7.77;;;1.57;;
7843;SDS011;3967;48.702;9.326;2024-01-25T13:54:47;6.17;;;1.57;;
7843;SDS011;3967;48.702;9.326;2024-01-25T13:57:17;8.83;;;1.77;;
7843;SDS011;3967;48.702;9.326;2024-01-25T13:59:47;7.97;;;1.70;;
7843;SDS011;3967;48.702;9.326;2024-01-25T14:02:13;7.30;;;1.73;;
7843;SDS011;3967;48.702;9.326;2024-01-25T14:04:40;4.27;;;1.43;;
7843;SDS011;3967;48.702;9.326;2024-01-25T14:07:08;10.80;;;1.80;;
7843;SDS011;3967;48.702;9.326;2024-01-25T14:09:34;6.93;;;1.60;;
7843;SDS011;3967;48.702;9.326;2024-01-25T14:12:04;6.40;;;1.30;;
7843;SDS011;3967;48.702;9.326;2024-01-25T14:14:31;7.13;;;1.83;;
7843;SDS011;3967;48.702;9.326;2024-01-25T14:16:58;7.17;;;1.50;;
7843;SDS011;3967;48.702;9.326;2024-01-25T14:19:25;6.60;;;1.40;;
7843;SDS011;3967;48.702;9.326;2024-01-25T14:21:53;8.60;;;1.20;;
7843;SDS011;3967;48.702;9.326;2024-01-25T14:24:39;7.83;;;1.87;;
7843;SDS011;3967;48.702;9.326;2024-01-25T14:27:06;9.67;;;1.63;;
7843;SDS011;3967;48.702;9.326;2024-01-25T14:29:33;8.20;;;1.43;;
7843;SDS011;3967;48.702;9.326;2024-01-25T14:32:00;9.77;;;1.50;;
7843;SDS011;3967;48.702;9.326;2024-01-25T14:34:29;8.10;;;2.07;;
7843;SDS011;3967;48.702;9.326;2024-01-25T14:36:56;9.77;;;1.73;;
7843;SDS011;3967;48.702;9.326;2024-01-25T14:39:23;6.93;;;1.70;;
7843;SDS011;3967;48.702;9.326;2024-01-25T14:41:50;7.03;;;1.53;;
7843;SDS011;3967;48.702;9.326;2024-01-25T14:44:17;9.13;;;1.70;;
7843;SDS011;3967;48.702;9.326;2024-01-25T14:46:43;7.07;;;1.83;;
7843;SDS011;3967;48.702;9.326;2024-01-25T14:49:10;8.93;;;1.40;;
7843;SDS011;3967;48.702;9.326;2024-01-25T14:51:37;6.70;;;1.20;;
7843;SDS011;3967;48.702;9.326;2024-01-25T14:54:04;4.87;;;1.20;;
7843;SDS011;3967;48.702;9.326;2024-01-25T14:56:31;5.37;;;1.20;;
7843;SDS011;3967;48.702;9.326;2024-01-25T14:58:58;3.23;;;1.13;;
7843;SDS011;3967;48.702;9.326;2024-01-25T15:01:25;5.60;;;1.50;;
7843;SDS011;3967;48.702;9.326;2024-01-25T15:03:57;7.37;;;1.93;;
7843;SDS011;3967;48.702;9.326;2024-01-25T15:06:24;8.40;;;1.90;;
7843;SDS011;3967;48.702;9.326;2024-01-25T15:08:52;7.13;;;1.90;;